AG4JW Arlington VA US current weather conditions

sailwx.info

Wind from 318 at 1 knots gusting 8

Air temperature 7.8° C
Dewpoint -0.7° C

Last reported at 2020-Jan-27 18:32 UTC.
Time now 2020-Jan-28 12:39 UTC

Location: N 38°53' W 077°08'.
View on Google Maps.

See reports from other nearby stations

  
Tides and Currents Weather Stations Pressure Air Temp Water Temp Dewpoint Dewpoint Depression Visibility Wind Speed Wind Dir Waves Ship Positions
date/time (UTC)wind fromknots sea level pressurealtimeterstation pressurevisibilityair tempwater tempwave heightnotes
2020-Jan-27 18:32 318 1 gusting 8 7.8
2020-Jan-27 18:22 325 1 gusting 8 7.8
2020-Jan-27 18:12 302 0 gusting 6 8.3
2020-Jan-27 18:01 277 8.3
2020-Jan-27 17:52 333 1 gusting 7 8.3
2020-Jan-27 17:42 313 0 gusting 6 8.3
2020-Jan-27 17:32 234 8.3
2020-Jan-27 17:22 257 8.3
2020-Jan-27 17:11 252 8.3
2020-Jan-27 17:01 294 0 gusting 7 7.8
2020-Jan-27 16:51 315 1 gusting 11 7.8
2020-Jan-27 16:40 338 0 gusting 11 7.8
2020-Jan-27 16:30 225 1 gusting 11 8.3
2020-Jan-27 16:20 219 1 gusting 11 8.3
2020-Jan-27 16:10 346 1 gusting 7 7.8
2020-Jan-27 16:00 222 1 gusting 6 7.8
2020-Jan-27 15:50 236 1 gusting 6 7.2
2020-Jan-27 15:40 290 0 gusting 6 6.7
2020-Jan-27 15:29 270 0 gusting 6 6.7
2020-Jan-27 15:19 286 1 gusting 6 6.7
2020-Jan-27 15:09 253 0 gusting 4 6.7
2020-Jan-27 14:59 178 6.1
2020-Jan-27 14:49 178 6.1
2020-Jan-27 14:39 217 5.6
2020-Jan-27 14:30 189 5.0
2020-Jan-27 14:19 217 5.0
2020-Jan-27 14:09 167 4.4
2020-Jan-27 13:59 217 4.4
2020-Jan-27 13:49 219 3.9
2020-Jan-27 13:39 257 3.9
2020-Jan-27 13:28 257 3.9
2020-Jan-27 13:19 257 3.9
2020-Jan-27 13:09 261 0 gusting 3 3.9
2020-Jan-27 12:58 238 3.3
2020-Jan-27 12:49 234 3.3
2020-Jan-27 12:38 234 2.8
2020-Jan-27 12:28 234 2.8
2020-Jan-27 12:18 182 2.2
2020-Jan-27 12:08 182 2.2
2020-Jan-27 11:58 182 2.2
2020-Jan-27 11:47 182 2.2
2020-Jan-27 11:37 180 1.7
2020-Jan-27 11:27 181 1.7
2020-Jan-27 11:16 180 1.7
2020-Jan-27 11:06 271 1.7
2020-Jan-27 10:56 271 1.7
2020-Jan-27 10:45 271 1.7
2020-Jan-27 10:35 273 1.7
2020-Jan-27 10:25 292 1.7
2020-Jan-27 10:16 300 1.7
2020-Jan-27 10:05 300 1.7
2020-Jan-27 09:56 300 1.7
2020-Jan-27 09:45 300 1.7
2020-Jan-27 09:35 300 1.7
2020-Jan-27 09:26 300 1.7
2020-Jan-27 09:15 300 1.7
2020-Jan-27 09:05 300 2.2
2020-Jan-27 08:55 300 2.2
2020-Jan-27 08:45 300 2.2
2020-Jan-27 08:34 300 2.2
2020-Jan-27 08:24 300 2.8
2020-Jan-27 08:14 300 2.8
2020-Jan-27 08:03 302 2.8
2020-Jan-27 07:54 302 2.8
2020-Jan-27 07:44 302 2.8
2020-Jan-27 07:34 316 2.8
2020-Jan-27 07:24 316 3.3
2020-Jan-27 07:14 316 3.3
2020-Jan-27 07:04 316 3.3
2020-Jan-27 06:54 316 3.3
2020-Jan-27 06:44 331 3.3
2020-Jan-27 06:33 331 3.3
2020-Jan-27 06:23 331 3.3
2020-Jan-27 06:13 331 3.3
2020-Jan-27 06:03 331 3.3
2020-Jan-27 05:52 331 3.3
2020-Jan-27 05:42 331 3.3
2020-Jan-27 05:32 331 3.3
2020-Jan-27 05:22 331 3.3
2020-Jan-27 05:12 331 3.3
2020-Jan-27 05:02 331 3.3
2020-Jan-27 04:52 331 3.3
2020-Jan-27 04:42 331 3.3
2020-Jan-27 04:32 331 3.9
2020-Jan-27 04:22 331 3.9
2020-Jan-27 04:13 331 3.3
2020-Jan-27 04:02 331 3.9
2020-Jan-27 03:52 331 3.9
2020-Jan-27 03:42 331 4.4
2020-Jan-27 03:32 333 4.4
2020-Jan-27 03:22 333 4.4
2020-Jan-27 03:11 333 5.0
2020-Jan-27 03:01 333 5.0
2020-Jan-27 02:51 333 5.0
2020-Jan-27 02:41 328 5.0
2020-Jan-27 02:31 328 5.0
2020-Jan-27 02:21 327 5.0
2020-Jan-27 02:10 329 5.0
2020-Jan-27 02:00 329 5.0
2020-Jan-27 01:49 328 5.0
2020-Jan-27 01:40 329 5.6
2020-Jan-27 01:30 327 1 gusting 1 5.6
2020-Jan-27 01:20 312 1 gusting 6 5.6
2020-Jan-27 01:09 344 0 gusting 4 5.6
2020-Jan-27 00:59 329 5.6
2020-Jan-27 00:49 312 1 gusting 7 5.6
2020-Jan-27 00:39 319 5.6
2020-Jan-27 00:29 289 0 gusting 0 6.1
2020-Jan-27 00:18 334 1 gusting 8 6.1
2020-Jan-27 00:08 309 2 gusting 8 6.1
2020-Jan-26 23:57 329 0 gusting 7 6.1
2020-Jan-26 23:48 273 0 gusting 7 6.1
2020-Jan-26 23:38 325 0 gusting 6 6.1
2020-Jan-26 23:27 307 1 gusting 10 6.1
2020-Jan-26 23:17 319 1 gusting 10 6.7
2020-Jan-26 23:07 328 1 gusting 8 6.7
2020-Jan-26 22:57 327 6.7
2020-Jan-26 22:47 313 0 6.7
2020-Jan-26 22:37 344 6.7
2020-Jan-26 22:27 320 6.7
2020-Jan-26 22:17 311 6.7
2020-Jan-26 22:07 346 6.7
2020-Jan-26 21:57 339 6.7
2020-Jan-26 21:47 332 7.2
2020-Jan-26 21:37 333 7.2
2020-Jan-26 21:27 349 7.2
2020-Jan-26 21:17 336 7.2
2020-Jan-26 21:07 306 7.2
2020-Jan-26 20:57 343 7.2
2020-Jan-26 20:47 7.2
2020-Jan-26 20:36 344 7.2
2020-Jan-26 20:26 283 7.2
2020-Jan-26 20:16 313 7.2
2020-Jan-26 20:06 319 0 gusting 6 7.2
2020-Jan-26 19:55 294 7.2
2020-Jan-26 19:45 346 1 gusting 8 7.2
2020-Jan-26 19:35 296 1 gusting 7 7.2
2020-Jan-26 19:25 316 0 gusting 6 7.2
2020-Jan-26 19:15 335 0 gusting 7 7.2
2020-Jan-26 19:05 318 0 gusting 5 7.8
2020-Jan-26 18:55 303 7.8
2020-Jan-26 18:45 314 1 gusting 9 7.2
2020-Jan-26 18:34 256 1 gusting 9 7.2
2020-Jan-26 18:24 233 7.8
2020-Jan-26 18:14 269 0 gusting 6 7.2
2020-Jan-26 18:04 313 1 gusting 7 7.2
2020-Jan-26 17:54 296 1 gusting 8 7.2
2020-Jan-26 17:44 265 0 gusting 9 7.8
2020-Jan-26 17:34 325 0 gusting 6 7.2
2020-Jan-26 17:23 345 0 gusting 7 7.8
2020-Jan-26 17:13 269 1 gusting 5 7.8
2020-Jan-26 17:03 269 1 gusting 7 7.8
2020-Jan-26 16:53 288 0 gusting 6 7.8
2020-Jan-26 16:43 306 1 gusting 7 7.8
2020-Jan-26 16:33 355 1 gusting 7 7.8
2020-Jan-26 16:23 225 0 gusting 7 7.8
2020-Jan-26 16:14 276 1 gusting 7 7.2
2020-Jan-26 16:04 320 1 gusting 6 7.2
2020-Jan-26 15:53 322 0 gusting 7 7.2
2020-Jan-26 15:44 263 0 gusting 10 7.2
2020-Jan-26 15:34 281 1 gusting 10 7.2
2020-Jan-26 15:24 339 0 gusting 6 7.2
2020-Jan-26 15:14 290 1 gusting 6 7.2
2020-Jan-26 15:03 253 6.7
2020-Jan-26 14:54 264 6.1
2020-Jan-26 14:43 273 6.1
2020-Jan-26 14:33 242 5.6
2020-Jan-26 14:23 256 5.6
2020-Jan-26 14:12 263 5.0
2020-Jan-26 14:02 203 4.4
2020-Jan-26 13:53 203 4.4
2020-Jan-26 13:42 203 4.4
2020-Jan-26 13:32 203 4.4
2020-Jan-26 13:22 203 3.9
2020-Jan-26 13:12 203 3.3
2020-Jan-26 13:02 203 2.8
2020-Jan-26 12:52 203 2.2
2020-Jan-26 12:42 203 2.2
2020-Jan-26 12:32 203 2.2
2020-Jan-26 12:22 203 2.8
2020-Jan-26 12:12 203 2.8
2020-Jan-26 12:02 203 3.3